Time;durP1;ratioP1;P1;durP2;ratioP2;P2;SDS_P1;SDS_P2;PMS_P1;PMS_P2;Temp;Humidity;BMP_temperature;BMP_pressure;BME280_temperature;BME280_humidity;BME280_pressure;Samples;Min_cycle;Max_cycle;Signal;HPM_P1;HPM_P2
2021/01/29 00:02:01;;;;;;;30.77;28.00;;;;;;;;;;5077401;28;20207;-83
2021/01/29 00:04:28;;;;;;;29.73;27.45;;;;;;;;;;5078107;28;20215;-83
2021/01/29 00:06:56;;;;;;;28.17;25.88;;;;;;;;;;5077249;28;20195;-83
2021/01/29 00:09:23;;;;;;;28.80;26.52;;;;;;;;;;5077335;28;20227;-82
2021/01/29 00:11:50;;;;;;;28.33;25.92;;;;;;;;;;5078043;28;20650;-83
2021/01/29 00:14:17;;;;;;;28.52;26.20;;;;;;;;;;5077805;28;20199;-83
2021/01/29 00:16:44;;;;;;;28.90;26.60;;;;;;;;;;5077176;28;20192;-82
2021/01/29 00:19:10;;;;;;;27.13;24.88;;;;;;;;;;5077133;28;20219;-83
2021/01/29 00:21:37;;;;;;;26.00;24.00;;;;;;;;;;5077373;28;20195;-83
2021/01/29 00:24:05;;;;;;;27.50;25.40;;;;;;;;;;5077416;28;20241;-83
2021/01/29 00:26:32;;;;;;;27.48;25.40;;;;;;;;;;5076980;28;20553;-83
2021/01/29 00:28:59;;;;;;;24.20;22.58;;;;;;;;;;5077225;28;20212;-83
2021/01/29 00:31:26;;;;;;;28.00;25.90;;;;;;;;;;5076931;28;20223;-83
2021/01/29 00:33:53;;;;;;;26.08;24.17;;;;;;;;;;5077172;28;20200;-83
2021/01/29 00:36:20;;;;;;;28.10;25.95;;;;;;;;;;5077489;28;20555;-82
2021/01/29 00:38:47;;;;;;;28.20;25.95;;;;;;;;;;5076699;28;20254;-83
2021/01/29 00:41:15;;;;;;;24.10;22.35;;;;;;;;;;5077116;28;20604;-83
2021/01/29 00:43:45;;;;;;;26.58;24.67;;;;;;;;;;5076465;28;20196;-83
2021/01/29 00:46:11;;;;;;;26.50;24.60;;;;;;;;;;5076682;28;20196;-83
2021/01/29 00:48:39;;;;;;;26.02;24.08;;;;;;;;;;5058938;28;20257;-83
2021/01/29 00:51:05;;;;;;;26.77;24.88;;;;;;;;;;5076409;28;20221;-83
2021/01/29 00:53:32;;;;;;;25.27;23.38;;;;;;;;;;5076419;28;20615;-83
2021/01/29 00:55:59;;;;;;;24.27;22.58;;;;;;;;;;5077205;28;20195;-83
2021/01/29 00:58:27;;;;;;;26.00;24.15;;;;;;;;;;5076587;28;20277;-83
2021/01/29 01:00:54;;;;;;;26.55;24.60;;;;;;;;;;5076367;28;20220;-82
2021/01/29 01:03:21;;;;;;;27.65;25.15;;;;;;;;;;5076531;28;20198;-83
2021/01/29 01:05:48;;;;;;;25.95;24.05;;;;;;;;;;5076274;28;20187;-83
2021/01/29 01:08:15;;;;;;;25.80;23.77;;;;;;;;;;5075376;28;20226;-83
2021/01/29 01:10:41;;;;;;;25.05;23.25;;;;;;;;;;5076417;28;20234;-83
2021/01/29 01:13:08;;;;;;;24.00;22.40;;;;;;;;;;5076157;28;20203;-83
2021/01/29 01:15:36;;;;;;;25.17;23.38;;;;;;;;;;5076104;28;20247;-83
2021/01/29 01:18:05;;;;;;;24.15;22.63;;;;;;;;;;5075990;28;20634;-83
2021/01/29 01:20:32;;;;;;;24.10;22.40;;;;;;;;;;5076269;28;20231;-83
2021/01/29 01:22:59;;;;;;;24.35;22.60;;;;;;;;;;5076001;28;20715;-82
2021/01/29 01:25:27;;;;;;;22.98;21.40;;;;;;;;;;5076157;28;20657;-83
2021/01/29 01:27:55;;;;;;;24.38;22.75;;;;;;;;;;5075787;28;20723;-83
2021/01/29 01:30:23;;;;;;;23.48;21.88;;;;;;;;;;5076025;28;20195;-82
2021/01/29 01:32:51;;;;;;;23.38;21.77;;;;;;;;;;5075947;28;20670;-83
2021/01/29 01:35:18;;;;;;;23.58;22.10;;;;;;;;;;5075721;28;20188;-83
2021/01/29 01:37:45;;;;;;;23.17;21.67;;;;;;;;;;5075713;28;20189;-85
2021/01/29 01:40:13;;;;;;;24.60;22.92;;;;;;;;;;5075719;28;20218;-83
2021/01/29 01:42:39;;;;;;;22.80;21.40;;;;;;;;;;5075440;28;20192;-83
2021/01/29 01:45:21;;;;;;;24.10;22.52;;;;;;;;;;5075658;28;20200;-82
2021/01/29 01:47:48;;;;;;;24.20;22.60;;;;;;;;;;5075261;28;20199;-83
2021/01/29 01:50:19;;;;;;;23.90;22.30;;;;;;;;;;5075610;28;20197;-82
2021/01/29 01:52:46;;;;;;;23.48;21.38;;;;;;;;;;5075310;28;20193;-83
2021/01/29 01:55:16;;;;;;;23.77;22.27;;;;;;;;;;5057718;28;20199;-83
2021/01/29 01:57:44;;;;;;;22.40;21.00;;;;;;;;;;5075327;28;20184;-83
2021/01/29 02:00:13;;;;;;;23.23;21.75;;;;;;;;;;5057583;28;20239;-82
2021/01/29 02:02:42;;;;;;;22.08;20.73;;;;;;;;;;5075101;28;20196;-83
2021/01/29 02:05:11;;;;;;;22.90;21.55;;;;;;;;;;5075442;28;20524;-83
2021/01/29 02:07:40;;;;;;;22.65;21.23;;;;;;;;;;5075137;28;20228;-83
2021/01/29 02:10:07;;;;;;;23.85;21.83;;;;;;;;;;5074995;28;20191;-83
2021/01/29 02:12:34;;;;;;;22.73;21.23;;;;;;;;;;5074878;28;20191;-83
2021/01/29 02:15:01;;;;;;;23.45;22.00;;;;;;;;;;5074781;28;20197;-82
2021/01/29 02:17:34;;;;;;;21.98;20.63;;;;;;;;;;5075299;28;20192;-83
2021/01/29 02:20:19;;;;;;;23.90;22.08;;;;;;;;;;5073995;28;20221;-83
2021/01/29 02:23:10;;;;;;;23.83;22.33;;;;;;;;;;5074592;28;20558;-83
2021/01/29 02:26:01;;;;;;;23.65;22.15;;;;;;;;;;5074723;28;20184;-83
2021/01/29 02:28:33;;;;;;;23.83;22.30;;;;;;;;;;5075030;28;20187;-82
2021/01/29 02:31:12;;;;;;;22.67;21.27;;;;;;;;;;5075067;28;20188;-83
2021/01/29 02:33:57;;;;;;;23.75;22.15;;;;;;;;;;5074806;28;20187;-83
2021/01/29 02:36:42;;;;;;;22.85;21.17;;;;;;;;;;5074773;28;20222;-83
2021/01/29 02:39:23;;;;;;;23.17;21.67;;;;;;;;;;5074731;28;20215;-83
2021/01/29 02:41:58;;;;;;;23.00;21.60;;;;;;;;;;5074650;28;20184;-83
2021/01/29 02:44:31;;;;;;;23.35;21.95;;;;;;;;;;5074523;28;20241;-83
2021/01/29 02:46:59;;;;;;;22.20;20.80;;;;;;;;;;5074765;28;20200;-83
2021/01/29 02:49:28;;;;;;;23.17;21.77;;;;;;;;;;5074663;28;20559;-83
2021/01/29 02:51:59;;;;;;;23.17;21.80;;;;;;;;;;5074144;28;20198;-82
2021/01/29 02:54:32;;;;;;;22.77;21.38;;;;;;;;;;5074501;28;20664;-83
2021/01/29 02:57:02;;;;;;;22.25;20.92;;;;;;;;;;5074091;28;20195;-83
2021/01/29 02:59:33;;;;;;;22.95;21.30;;;;;;;;;;5074148;28;20697;-83
2021/01/29 03:02:01;;;;;;;22.75;21.35;;;;;;;;;;5073891;28;20200;-83
2021/01/29 03:04:31;;;;;;;22.20;20.83;;;;;;;;;;5074129;28;20195;-83
2021/01/29 03:07:00;;;;;;;22.30;20.92;;;;;;;;;;5074099;28;20270;-83
2021/01/29 03:09:29;;;;;;;22.38;20.98;;;;;;;;;;5075012;28;20195;-82
2021/01/29 03:12:01;;;;;;;22.52;21.13;;;;;;;;;;5073693;28;20200;-83
2021/01/29 03:14:31;;;;;;;22.95;21.58;;;;;;;;;;5073798;28;20200;-83
2021/01/29 03:17:03;;;;;;;22.40;21.10;;;;;;;;;;5074140;28;20189;-83
2021/01/29 03:19:30;;;;;;;22.45;21.15;;;;;;;;;;5073799;28;20678;-83
2021/01/29 03:22:00;;;;;;;22.00;20.60;;;;;;;;;;5073820;28;20700;-84
2021/01/29 03:24:28;;;;;;;21.95;20.65;;;;;;;;;;5073872;28;20191;-83
2021/01/29 03:27:00;;;;;;;21.83;20.60;;;;;;;;;;5073928;28;20207;-83
2021/01/29 03:29:32;;;;;;;21.60;20.40;;;;;;;;;;5073983;28;20188;-83
2021/01/29 03:32:01;;;;;;;22.85;21.52;;;;;;;;;;5055681;28;20217;-83
2021/01/29 03:34:32;;;;;;;22.17;20.83;;;;;;;;;;5073974;28;20185;-83
2021/01/29 03:37:03;;;;;;;22.45;21.05;;;;;;;;;;5073595;28;20196;-83
2021/01/29 03:39:33;;;;;;;22.42;21.05;;;;;;;;;;5073753;28;20360;-83
2021/01/29 03:42:06;;;;;;;22.95;21.55;;;;;;;;;;5055834;28;20195;-83
2021/01/29 03:44:42;;;;;;;23.83;22.17;;;;;;;;;;5073667;28;20190;-83
2021/01/29 03:47:11;;;;;;;22.45;21.05;;;;;;;;;;5073541;28;20288;-82
2021/01/29 03:49:43;;;;;;;22.70;21.20;;;;;;;;;;5073740;28;20184;-83
2021/01/29 03:52:15;;;;;;;22.35;21.05;;;;;;;;;;5073456;28;20215;-82
2021/01/29 03:54:47;;;;;;;22.48;21.08;;;;;;;;;;5073390;28;20195;-83
2021/01/29 03:57:20;;;;;;;22.48;21.17;;;;;;;;;;5073722;28;20188;-83
2021/01/29 03:59:53;;;;;;;22.10;20.80;;;;;;;;;;5073244;28;20251;-83
2021/01/29 04:02:23;;;;;;;23.80;22.30;;;;;;;;;;5073569;28;20190;-83
2021/01/29 04:04:54;;;;;;;22.55;21.25;;;;;;;;;;5073142;28;20658;-83
2021/01/29 04:07:23;;;;;;;22.73;21.33;;;;;;;;;;5055444;28;20228;-84
2021/01/29 04:09:52;;;;;;;23.90;22.40;;;;;;;;;;5073810;28;20196;-83
2021/01/29 04:12:24;;;;;;;24.52;23.02;;;;;;;;;;5073621;28;20203;-83
2021/01/29 04:14:54;;;;;;;23.33;21.92;;;;;;;;;;5073467;28;20191;-84
2021/01/29 04:17:24;;;;;;;23.63;22.17;;;;;;;;;;5073461;28;20219;-83
2021/01/29 04:19:53;;;;;;;23.80;22.40;;;;;;;;;;5073241;28;20739;-82
2021/01/29 04:22:22;;;;;;;25.02;23.33;;;;;;;;;;5073482;28;20634;-83
2021/01/29 04:24:52;;;;;;;23.80;22.25;;;;;;;;;;5073526;28;20590;-83
2021/01/29 04:27:20;;;;;;;23.70;22.20;;;;;;;;;;5073416;28;20190;-83
2021/01/29 04:29:50;;;;;;;24.60;23.00;;;;;;;;;;5073179;28;20189;-83
2021/01/29 04:32:19;;;;;;;25.42;23.70;;;;;;;;;;5055229;28;20279;-83
2021/01/29 04:34:47;;;;;;;23.67;22.20;;;;;;;;;;5073351;28;20196;-83
2021/01/29 04:37:16;;;;;;;23.92;22.42;;;;;;;;;;5073037;28;20589;-83
2021/01/29 04:39:44;;;;;;;24.35;22.70;;;;;;;;;;5072976;28;20212;-83
2021/01/29 04:42:18;;;;;;;25.38;23.77;;;;;;;;;;5055615;28;20295;-83
2021/01/29 04:44:57;;;;;;;25.80;24.00;;;;;;;;;;5075608;28;20223;-83
2021/01/29 04:47:26;;;;;;;24.15;22.65;;;;;;;;;;5076648;28;20187;-83
2021/01/29 04:50:14;;;;;;;25.10;23.50;;;;;;;;;;5076656;28;20201;-83
2021/01/29 04:52:59;;;;;;;25.08;23.40;;;;;;;;;;5072039;28;20203;-83
2021/01/29 04:55:38;;;;;;;25.55;23.73;;;;;;;;;;5077008;28;20189;-83
2021/01/29 04:58:06;;;;;;;25.33;23.73;;;;;;;;;;5058747;28;20200;-83
2021/01/29 05:00:54;;;;;;;25.50;23.80;;;;;;;;;;5076022;28;20228;-83
2021/01/29 05:03:41;;;;;;;24.85;23.25;;;;;;;;;;5051657;28;20203;-83
2021/01/29 05:06:35;;;;;;;26.13;24.30;;;;;;;;;;5076687;28;20528;-83
2021/01/29 05:09:17;;;;;;;27.42;25.23;;;;;;;;;;5014447;28;20246;-84
2021/01/29 05:11:57;;;;;;;25.92;24.08;;;;;;;;;;5012420;28;20238;-81
2021/01/29 05:14:42;;;;;;;25.60;23.90;;;;;;;;;;5014453;28;20197;-83
2021/01/29 05:17:17;;;;;;;26.92;25.13;;;;;;;;;;5014501;28;20562;-83
2021/01/29 05:20:02;;;;;;;27.02;24.92;;;;;;;;;;5014496;28;20229;-83
2021/01/29 05:22:42;;;;;;;26.27;24.27;;;;;;;;;;5014380;28;20640;-83
2021/01/29 05:25:17;;;;;;;26.60;24.70;;;;;;;;;;4998306;28;20206;-82
2021/01/29 05:27:51;;;;;;;26.83;24.95;;;;;;;;;;4998058;28;20245;-83
2021/01/29 05:30:35;;;;;;;26.80;24.95;;;;;;;;;;5014177;28;20317;-83
2021/01/29 05:33:10;;;;;;;27.20;25.13;;;;;;;;;;5014145;28;20230;-83
2021/01/29 05:35:50;;;;;;;27.45;25.35;;;;;;;;;;4997670;28;20205;-83
2021/01/29 05:38:28;;;;;;;28.13;26.02;;;;;;;;;;5014241;28;20205;-83
2021/01/29 05:41:18;;;;;;;28.70;26.55;;;;;;;;;;5013895;28;20222;-83
2021/01/29 05:44:00;;;;;;;26.88;24.92;;;;;;;;;;5018876;28;20206;-82
2021/01/29 05:46:30;;;;;;;27.42;25.52;;;;;;;;;;5023002;28;20204;-83
2021/01/29 05:49:06;;;;;;;29.00;26.70;;;;;;;;;;5055960;28;20197;-84
2021/01/29 05:51:44;;;;;;;28.40;26.20;;;;;;;;;;5055418;28;20185;-83
2021/01/29 05:54:29;;;;;;;26.73;24.58;;;;;;;;;;5055428;28;20192;-83
2021/01/29 05:57:15;;;;;;;28.23;25.80;;;;;;;;;;5055607;28;20193;-84
2021/01/29 05:59:49;;;;;;;27.92;25.77;;;;;;;;;;5055261;28;20222;-83
2021/01/29 06:02:25;;;;;;;28.42;26.17;;;;;;;;;;5055534;28;20187;-83
2021/01/29 06:05:12;;;;;;;27.10;25.15;;;;;;;;;;5055571;28;20200;-84
2021/01/29 06:08:07;;;;;;;27.23;25.30;;;;;;;;;;5061359;28;20250;-83
2021/01/29 06:10:50;;;;;;;28.85;26.42;;;;;;;;;;5075490;28;20188;-84
2021/01/29 06:13:32;;;;;;;28.92;26.42;;;;;;;;;;5073153;28;20227;-84
2021/01/29 06:16:16;;;;;;;29.00;26.75;;;;;;;;;;5042331;28;20207;-83
2021/01/29 06:19:02;;;;;;;31.27;28.15;;;;;;;;;;5065314;28;20201;-83
2021/01/29 06:21:40;;;;;;;29.85;27.45;;;;;;;;;;5074991;28;20206;-84
2021/01/29 06:24:25;;;;;;;30.23;27.65;;;;;;;;;;5074892;28;20203;-83
2021/01/29 06:27:12;;;;;;;27.40;25.30;;;;;;;;;;5075150;28;20191;-84
2021/01/29 06:29:47;;;;;;;29.13;26.52;;;;;;;;;;5074826;28;20246;-83
2021/01/29 06:32:38;;;;;;;29.65;26.00;;;;;;;;;;5074397;28;20575;-84
2021/01/29 06:35:23;;;;;;;31.15;28.15;;;;;;;;;;5074630;28;20243;-83
2021/01/29 06:37:57;;;;;;;30.40;27.85;;;;;;;;;;5075017;28;20257;-84
2021/01/29 06:40:26;;;;;;;28.95;26.63;;;;;;;;;;5074612;28;20216;-84
2021/01/29 06:43:06;;;;;;;26.75;24.60;;;;;;;;;;5074635;28;20189;-84
2021/01/29 06:45:50;;;;;;;27.88;25.58;;;;;;;;;;5074495;28;20193;-84
2021/01/29 06:48:21;;;;;;;28.02;25.85;;;;;;;;;;5074311;28;20208;-83
2021/01/29 06:51:03;;;;;;;25.75;23.83;;;;;;;;;;5074328;28;20215;-84
2021/01/29 06:53:44;;;;;;;26.27;24.13;;;;;;;;;;5074678;28;20200;-83
2021/01/29 06:56:30;;;;;;;26.67;24.67;;;;;;;;;;5062310;28;20211;-84
2021/01/29 06:59:16;;;;;;;26.20;24.10;;;;;;;;;;5074033;28;20205;-83
2021/01/29 07:02:07;;;;;;;26.70;24.30;;;;;;;;;;5073992;28;20239;-83
2021/01/29 07:04:46;;;;;;;25.52;23.73;;;;;;;;;;5074094;28;20280;-84
2021/01/29 07:07:20;;;;;;;24.98;23.23;;;;;;;;;;5073714;28;20559;-84
2021/01/29 07:09:59;;;;;;;25.52;23.35;;;;;;;;;;5074220;28;20203;-84
2021/01/29 07:12:36;;;;;;;26.88;24.63;;;;;;;;;;5073952;28;20183;-83
2021/01/29 07:15:15;;;;;;;25.13;22.67;;;;;;;;;;5056046;28;20534;-84
2021/01/29 07:17:54;;;;;;;24.90;23.00;;;;;;;;;;5073881;28;20191;-84
2021/01/29 07:20:35;;;;;;;26.38;24.33;;;;;;;;;;5074237;28;20597;-84
2021/01/29 07:23:22;;;;;;;25.77;23.75;;;;;;;;;;5074334;28;20188;-84
2021/01/29 07:25:59;;;;;;;27.30;25.30;;;;;;;;;;5069016;28;20195;-84
2021/01/29 07:28:32;;;;;;;26.38;24.25;;;;;;;;;;5074115;28;20256;-84
2021/01/29 07:31:13;;;;;;;26.17;24.05;;;;;;;;;;5073405;28;20203;-83
2021/01/29 07:33:44;;;;;;;24.10;22.25;;;;;;;;;;5073996;28;20548;-84
2021/01/29 07:36:25;;;;;;;24.98;23.08;;;;;;;;;;5056144;28;20547;-84
2021/01/29 07:39:02;;;;;;;24.92;23.27;;;;;;;;;;5073924;28;20191;-83
2021/01/29 07:41:39;;;;;;;25.92;24.00;;;;;;;;;;5073597;28;20237;-84
2021/01/29 07:44:20;;;;;;;27.17;24.90;;;;;;;;;;5055769;28;20200;-84
2021/01/29 07:46:56;;;;;;;26.13;23.95;;;;;;;;;;5071441;28;20189;-84
2021/01/29 07:49:31;;;;;;;27.13;24.98;;;;;;;;;;5073397;28;20211;-84
2021/01/29 07:52:02;;;;;;;25.30;23.48;;;;;;;;;;5073859;28;20188;-84
2021/01/29 07:54:43;;;;;;;25.35;23.65;;;;;;;;;;5073698;28;20262;-83
2021/01/29 07:57:19;;;;;;;25.05;23.38;;;;;;;;;;5073384;28;20637;-81
2021/01/29 08:00:01;;;;;;;24.90;23.10;;;;;;;;;;5073233;28;20672;-80
2021/01/29 08:02:37;;;;;;;24.80;23.30;;;;;;;;;;5071131;28;20204;-81
2021/01/29 08:05:10;;;;;;;24.35;22.58;;;;;;;;;;5074160;28;20183;-82
2021/01/29 08:07:39;;;;;;;26.73;24.85;;;;;;;;;;5073262;28;20236;-82
2021/01/29 08:10:07;;;;;;;24.98;22.80;;;;;;;;;;5073337;28;20215;-81
2021/01/29 08:12:36;;;;;;;24.60;22.85;;;;;;;;;;5073328;28;20187;-80
2021/01/29 08:15:12;;;;;;;24.08;22.63;;;;;;;;;;5073324;28;20186;-80
2021/01/29 08:17:50;;;;;;;25.00;23.15;;;;;;;;;;5073784;28;20200;-80
2021/01/29 08:20:26;;;;;;;24.50;22.88;;;;;;;;;;5076480;28;20212;-79
2021/01/29 08:23:03;;;;;;;23.95;22.25;;;;;;;;;;5077000;28;20562;-80
2021/01/29 08:25:36;;;;;;;23.83;22.00;;;;;;;;;;5077304;28;20217;-80
2021/01/29 08:28:21;;;;;;;23.48;22.08;;;;;;;;;;5076937;28;20635;-81
2021/01/29 08:30:55;;;;;;;23.35;21.95;;;;;;;;;;5077014;28;20212;-81
2021/01/29 08:33:40;;;;;;;25.65;23.75;;;;;;;;;;5077000;28;20192;-80
2021/01/29 08:36:15;;;;;;;24.63;23.10;;;;;;;;;;5076292;28;20674;-80
2021/01/29 08:38:44;;;;;;;25.23;23.50;;;;;;;;;;5077849;28;20195;-80
2021/01/29 08:41:14;;;;;;;24.27;22.65;;;;;;;;;;5076880;28;20217;-80
2021/01/29 08:43:53;;;;;;;26.05;24.17;;;;;;;;;;5076552;28;20199;-80
2021/01/29 08:46:27;;;;;;;26.65;24.85;;;;;;;;;;5076898;28;20199;-79
2021/01/29 08:49:03;;;;;;;26.95;24.95;;;;;;;;;;5058805;28;20200;-80
2021/01/29 08:51:31;;;;;;;28.25;25.52;;;;;;;;;;5076664;28;20189;-80
2021/01/29 08:54:12;;;;;;;25.10;23.48;;;;;;;;;;5076525;28;20192;-80
2021/01/29 08:56:42;;;;;;;26.77;25.08;;;;;;;;;;5076323;28;20203;-80
2021/01/29 08:59:10;;;;;;;26.23;24.60;;;;;;;;;;5076661;28;20194;-80
2021/01/29 09:01:44;;;;;;;25.55;23.83;;;;;;;;;;5076562;28;20189;-80
2021/01/29 09:04:19;;;;;;;25.70;24.20;;;;;;;;;;5076314;28;20526;-82
2021/01/29 09:06:47;;;;;;;26.38;24.35;;;;;;;;;;5076131;28;20189;-80
2021/01/29 09:09:17;;;;;;;25.23;23.80;;;;;;;;;;5076056;28;20225;-81
2021/01/29 09:11:47;;;;;;;28.60;26.88;;;;;;;;;;5076065;28;20270;-80
2021/01/29 09:14:16;;;;;;;26.60;24.88;;;;;;;;;;5076375;28;20193;-80
2021/01/29 09:16:45;;;;;;;28.38;26.23;;;;;;;;;;5076983;28;20191;-80
2021/01/29 09:19:14;;;;;;;27.45;25.80;;;;;;;;;;5076268;28;20184;-81
2021/01/29 09:21:45;;;;;;;27.20;25.25;;;;;;;;;;5076123;28;20184;-80
2021/01/29 09:24:17;;;;;;;26.77;25.08;;;;;;;;;;5075844;28;20201;-81
2021/01/29 09:26:46;;;;;;;29.48;27.48;;;;;;;;;;5076071;28;20196;-81
2021/01/29 09:29:16;;;;;;;26.42;24.73;;;;;;;;;;5075240;28;20193;-81
2021/01/29 09:31:46;;;;;;;30.00;27.98;;;;;;;;;;5075896;28;20221;-81
2021/01/29 09:34:17;;;;;;;28.90;27.17;;;;;;;;;;5075335;28;20209;-80
2021/01/29 09:36:49;;;;;;;29.67;27.77;;;;;;;;;;5076198;28;20207;-81
2021/01/29 09:39:21;;;;;;;28.13;26.42;;;;;;;;;;5075634;28;20208;-81
2021/01/29 09:41:49;;;;;;;27.73;25.98;;;;;;;;;;5075864;28;20540;-81
2021/01/29 09:44:20;;;;;;;28.17;26.58;;;;;;;;;;5075654;28;20201;-80
2021/01/29 09:46:47;;;;;;;28.85;27.23;;;;;;;;;;5057562;28;20592;-81
2021/01/29 09:49:20;;;;;;;27.88;26.17;;;;;;;;;;5075729;28;20188;-81
2021/01/29 09:51:57;;;;;;;26.08;24.52;;;;;;;;;;5075360;28;20189;-81
2021/01/29 09:54:27;;;;;;;26.17;24.38;;;;;;;;;;5075231;28;20200;-81
2021/01/29 09:56:56;;;;;;;25.73;24.23;;;;;;;;;;5075645;28;20277;-81
2021/01/29 09:59:25;;;;;;;25.00;23.58;;;;;;;;;;5057270;28;20251;-81
2021/01/29 10:01:57;;;;;;;24.50;22.83;;;;;;;;;;5075088;28;20553;-81
2021/01/29 10:04:34;;;;;;;25.00;23.60;;;;;;;;;;5075456;28;20202;-82
2021/01/29 10:07:03;;;;;;;24.90;23.40;;;;;;;;;;5075197;28;20221;-83
2021/01/29 10:09:32;;;;;;;26.92;25.23;;;;;;;;;;5075158;28;20546;-82
2021/01/29 10:12:04;;;;;;;25.58;24.08;;;;;;;;;;5074796;28;20251;-82
2021/01/29 10:14:39;;;;;;;26.02;24.52;;;;;;;;;;5073588;28;20192;-81
2021/01/29 10:17:10;;;;;;;27.38;25.63;;;;;;;;;;5075046;28;20192;-81
2021/01/29 10:19:42;;;;;;;27.92;26.23;;;;;;;;;;5075079;28;20212;-82
2021/01/29 10:22:18;;;;;;;27.00;25.23;;;;;;;;;;5056875;28;20203;-82
2021/01/29 10:24:49;;;;;;;31.33;28.80;;;;;;;;;;5074593;28;20200;-82
2021/01/29 10:27:20;;;;;;;31.13;28.63;;;;;;;;;;5074499;28;20199;-82
2021/01/29 10:29:49;;;;;;;31.38;29.13;;;;;;;;;;5074326;28;20189;-82
2021/01/29 10:32:18;;;;;;;29.98;27.77;;;;;;;;;;5077394;28;20267;-81
2021/01/29 10:34:49;;;;;;;32.60;30.30;;;;;;;;;;5074542;28;20188;-82
2021/01/29 10:37:19;;;;;;;28.33;26.52;;;;;;;;;;5074361;28;20189;-82
2021/01/29 10:40:01;;;;;;;28.17;26.33;;;;;;;;;;5074672;28;20221;-82
2021/01/29 10:42:34;;;;;;;29.40;27.35;;;;;;;;;;5061219;28;20613;-82
2021/01/29 10:45:02;;;;;;;31.83;29.30;;;;;;;;;;5074509;28;20238;-82
2021/01/29 10:47:38;;;;;;;29.40;27.33;;;;;;;;;;5074249;28;20200;-82
2021/01/29 10:50:12;;;;;;;35.58;33.17;;;;;;;;;;5074258;28;20223;-82
2021/01/29 10:52:43;;;;;;;37.95;35.30;;;;;;;;;;5074364;28;20188;-82
2021/01/29 10:55:18;;;;;;;45.20;42.10;;;;;;;;;;5074294;28;20189;-82
2021/01/29 10:57:48;;;;;;;50.00;46.45;;;;;;;;;;5074260;28;20199;-82
2021/01/29 11:00:16;;;;;;;55.25;50.42;;;;;;;;;;5075360;28;20220;-82
2021/01/29 11:02:47;;;;;;;48.50;44.70;;;;;;;;;;5073732;28;20213;-82
2021/01/29 11:05:20;;;;;;;45.20;40.95;;;;;;;;;;5074396;28;20218;-82
2021/01/29 11:07:50;;;;;;;43.33;39.70;;;;;;;;;;5073769;28;20246;-82
2021/01/29 11:10:21;;;;;;;43.92;40.03;;;;;;;;;;5074006;28;20282;-82
2021/01/29 11:12:53;;;;;;;41.10;37.75;;;;;;;;;;5074145;28;20561;-82
2021/01/29 11:15:23;;;;;;;40.60;37.30;;;;;;;;;;5073697;28;20593;-82
2021/01/29 11:17:53;;;;;;;42.30;38.90;;;;;;;;;;5072539;28;20185;-81
2021/01/29 11:20:24;;;;;;;42.47;39.15;;;;;;;;;;5071362;28;20222;-81
2021/01/29 11:22:57;;;;;;;39.92;36.50;;;;;;;;;;5074134;28;20197;-81
2021/01/29 11:25:45;;;;;;;39.92;36.78;;;;;;;;;;5073609;28;20196;-82
2021/01/29 11:28:18;;;;;;;38.50;35.70;;;;;;;;;;5073944;28;20191;-81
2021/01/29 11:30:49;;;;;;;39.28;36.17;;;;;;;;;;5073517;28;20192;-82
2021/01/29 11:33:21;;;;;;;39.25;36.15;;;;;;;;;;5073589;28;20643;-82
2021/01/29 11:35:56;;;;;;;39.90;36.90;;;;;;;;;;5073615;28;20206;-82
2021/01/29 11:38:41;;;;;;;35.05;32.90;;;;;;;;;;5073653;28;20203;-82
2021/01/29 11:41:26;;;;;;;34.85;32.55;;;;;;;;;;5073487;28;20246;-83
2021/01/29 11:43:57;;;;;;;33.47;31.30;;;;;;;;;;5060667;28;20292;-83
2021/01/29 11:46:26;;;;;;;30.63;28.85;;;;;;;;;;5073660;28;20524;-88
2021/01/29 11:48:57;;;;;;;33.47;31.40;;;;;;;;;;5073934;28;20194;-87
2021/01/29 11:51:32;;;;;;;32.55;30.65;;;;;;;;;;5074109;28;20191;-86
2021/01/29 11:54:03;;;;;;;38.90;36.40;;;;;;;;;;5079905;28;20195;-86
2021/01/29 11:56:32;;;;;;;39.25;36.78;;;;;;;;;;5062965;28;20210;-87
2021/01/29 11:59:01;;;;;;;38.95;36.85;;;;;;;;;;5081085;28;20657;-87
2021/01/29 12:01:32;;;;;;;38.33;36.13;;;;;;;;;;5080669;28;20212;-87
2021/01/29 12:04:05;;;;;;;40.13;37.85;;;;;;;;;;5081103;28;20200;-86
2021/01/29 12:06:34;;;;;;;39.65;37.28;;;;;;;;;;5080686;28;20229;-87
2021/01/29 12:09:03;;;;;;;40.35;38.00;;;;;;;;;;5080303;28;20232;-86
2021/01/29 12:11:34;;;;;;;39.42;37.38;;;;;;;;;;5062894;28;20669;-86
2021/01/29 12:14:05;;;;;;;42.15;39.90;;;;;;;;;;5080136;28;20236;-87
2021/01/29 12:16:35;;;;;;;40.65;38.10;;;;;;;;;;5081011;28;20187;-82
2021/01/29 12:19:02;;;;;;;40.45;38.20;;;;;;;;;;5062101;28;20230;-81
2021/01/29 12:21:32;;;;;;;41.28;39.20;;;;;;;;;;5079714;28;20219;-82
2021/01/29 12:24:04;;;;;;;42.13;39.08;;;;;;;;;;5078838;28;20196;-84
2021/01/29 12:26:35;;;;;;;41.53;39.30;;;;;;;;;;5080210;28;20625;-82
2021/01/29 12:29:05;;;;;;;40.70;38.42;;;;;;;;;;5080151;28;20643;-82
2021/01/29 12:31:36;;;;;;;41.03;38.53;;;;;;;;;;5079730;28;20743;-82
2021/01/29 12:34:05;;;;;;;41.25;39.00;;;;;;;;;;5080164;28;20205;-82
2021/01/29 12:36:33;;;;;;;41.47;38.67;;;;;;;;;;5079938;28;20203;-82
2021/01/29 12:39:03;;;;;;;40.53;37.80;;;;;;;;;;5079847;28;20262;-82
2021/01/29 12:41:44;;;;;;;39.05;36.72;;;;;;;;;;5079516;28;20216;-82
2021/01/29 12:44:16;;;;;;;42.85;39.60;;;;;;;;;;5079665;28;20187;-82
2021/01/29 12:46:46;;;;;;;42.22;39.50;;;;;;;;;;5079550;28;20194;-83
2021/01/29 12:49:17;;;;;;;38.88;36.80;;;;;;;;;;5079688;28;20547;-82
2021/01/29 12:51:48;;;;;;;41.63;38.58;;;;;;;;;;5079750;28;20192;-82
2021/01/29 12:54:18;;;;;;;42.72;39.33;;;;;;;;;;5079631;28;20189;-82
2021/01/29 12:56:54;;;;;;;36.83;33.70;;;;;;;;;;5079525;28;20645;-82
2021/01/29 12:59:42;;;;;;;39.92;36.85;;;;;;;;;;5079421;28;20188;-82
2021/01/29 13:02:16;;;;;;;84.18;36.38;;;;;;;;;;5070746;28;20718;-82
2021/01/29 13:04:44;;;;;;;34.85;32.58;;;;;;;;;;5077147;28;20633;-82
2021/01/29 13:07:15;;;;;;;38.08;34.92;;;;;;;;;;5076158;28;20192;-83
2021/01/29 13:09:51;;;;;;;39.60;35.95;;;;;;;;;;5076645;28;20188;-85
2021/01/29 13:12:25;;;;;;;36.15;33.60;;;;;;;;;;5076645;28;20198;-84
2021/01/29 13:15:01;;;;;;;37.17;34.15;;;;;;;;;;5058526;28;20237;-84
2021/01/29 13:17:30;;;;;;;38.33;34.80;;;;;;;;;;5076589;28;20264;-83
2021/01/29 13:20:08;;;;;;;37.22;33.92;;;;;;;;;;5076113;28;20227;-83
2021/01/29 13:22:41;;;;;;;37.50;33.30;;;;;;;;;;5076617;28;20195;-83
2021/01/29 13:25:18;;;;;;;40.08;29.65;;;;;;;;;;5076211;28;20190;-83
2021/01/29 13:27:47;;;;;;;28.75;26.00;;;;;;;;;;5075984;28;20199;-83
2021/01/29 13:30:19;;;;;;;32.05;28.83;;;;;;;;;;5075951;28;20203;-83
2021/01/29 13:32:47;;;;;;;38.25;28.65;;;;;;;;;;5076139;28;20566;-83
2021/01/29 13:35:15;;;;;;;32.35;28.88;;;;;;;;;;5076288;28;20192;-83
2021/01/29 13:37:42;;;;;;;33.42;29.63;;;;;;;;;;5076207;28;20194;-83
2021/01/29 13:40:10;;;;;;;38.80;28.23;;;;;;;;;;5075731;28;20241;-83
2021/01/29 13:42:39;;;;;;;33.67;28.50;;;;;;;;;;5076244;28;20201;-84
2021/01/29 13:45:08;;;;;;;29.23;25.85;;;;;;;;;;5075929;28;20188;-83
2021/01/29 13:47:36;;;;;;;30.58;27.33;;;;;;;;;;5076078;28;20276;-83
2021/01/29 13:50:14;;;;;;;37.28;27.70;;;;;;;;;;5075553;28;20400;-83
2021/01/29 13:52:49;;;;;;;30.17;27.40;;;;;;;;;;5075477;28;20190;-84
2021/01/29 13:55:22;;;;;;;31.63;26.30;;;;;;;;;;5075556;28;20195;-84
2021/01/29 13:57:54;;;;;;;28.92;26.25;;;;;;;;;;5075590;28;20692;-85
2021/01/29 14:00:24;;;;;;;28.90;26.10;;;;;;;;;;5075425;28;20676;-84
2021/01/29 14:02:53;;;;;;;28.52;25.00;;;;;;;;;;5075306;28;20199;-84
2021/01/29 14:05:22;;;;;;;29.58;26.38;;;;;;;;;;5075388;28;20610;-84
2021/01/29 14:07:49;;;;;;;28.30;25.88;;;;;;;;;;5075012;28;20242;-83
2021/01/29 14:10:19;;;;;;;32.40;26.08;;;;;;;;;;5075547;28;20187;-83
2021/01/29 14:13:05;;;;;;;28.58;25.55;;;;;;;;;;5075056;28;20191;-83
2021/01/29 14:15:35;;;;;;;25.67;23.48;;;;;;;;;;5074821;28;20653;-85
2021/01/29 14:18:12;;;;;;;25.00;23.05;;;;;;;;;;5074595;28;20195;-84
2021/01/29 14:20:43;;;;;;;30.63;24.95;;;;;;;;;;5074667;28;20222;-84
2021/01/29 14:23:13;;;;;;;37.97;26.15;;;;;;;;;;5057228;28;20270;-83
2021/01/29 14:25:49;;;;;;;28.70;25.52;;;;;;;;;;5075183;28;20215;-83
2021/01/29 14:28:30;;;;;;;29.20;23.75;;;;;;;;;;5074644;28;20244;-83
2021/01/29 14:31:03;;;;;;;32.40;24.90;;;;;;;;;;5074308;28;20221;-82
2021/01/29 14:33:36;;;;;;;28.42;25.00;;;;;;;;;;5074806;28;20188;-81
2021/01/29 14:36:05;;;;;;;28.80;25.00;;;;;;;;;;5074885;28;20198;-81
2021/01/29 14:38:42;;;;;;;35.97;28.65;;;;;;;;;;5074319;28;20649;-82
2021/01/29 14:41:14;;;;;;;36.97;25.70;;;;;;;;;;5055937;28;20694;-81
2021/01/29 14:43:47;;;;;;;31.48;26.92;;;;;;;;;;5073345;28;20551;-82
2021/01/29 14:46:21;;;;;;;28.45;25.13;;;;;;;;;;5056857;28;20218;-82
2021/01/29 14:49:05;;;;;;;29.90;27.00;;;;;;;;;;5074080;28;20676;-82
2021/01/29 14:51:38;;;;;;;34.80;25.27;;;;;;;;;;5074087;28;20229;-82